Time;durP1;ratioP1;P1;durP2;ratioP2;P2;SDS_P1;SDS_P2;PMS_P1;PMS_P2;Temp;Humidity;BMP_temperature;BMP_pressure;BME280_temperature;BME280_humidity;BME280_pressure;Samples;Min_cycle;Max_cycle;Signal;HPM_P1;HPM_P2
2023/01/11 00:01:32;;;;;;;7.10;2.50;;;;;;;-10.38;44.45;101930.72;5074503;28;20057;-55
2023/01/11 00:03:58;;;;;;;7.50;3.00;;;;;;;-10.35;44.86;101945.50;5074664;28;20050;-53
2023/01/11 00:06:23;;;;;;;7.22;2.90;;;;;;;-10.20;43.91;101918.41;5074956;28;20032;-50
2023/01/11 00:08:48;;;;;;;9.25;2.85;;;;;;;-10.16;43.67;101928.97;5074588;28;20031;-55
2023/01/11 00:11:15;;;;;;;6.47;2.88;;;;;;;-10.23;44.04;101929.56;5074691;28;20042;-53
2023/01/11 00:13:42;;;;;;;5.63;2.50;;;;;;;-10.23;43.75;101932.16;5074794;28;20036;-55
2023/01/11 00:16:08;;;;;;;11.07;3.00;;;;;;;-10.29;43.67;101935.38;5074441;28;20107;-52
2023/01/11 00:18:34;;;;;;;6.32;2.17;;;;;;;-10.19;43.75;101918.50;5074043;28;20032;-51
2023/01/11 00:21:04;;;;;;;7.82;3.05;;;;;;;-10.38;44.10;101890.97;5074737;28;20036;-55
2023/01/11 00:23:31;;;;;;;8.48;3.25;;;;;;;-10.23;43.90;101912.31;5074099;28;20493;-49
2023/01/11 00:25:56;;;;;;;5.90;2.38;;;;;;;-10.15;44.09;101933.31;5074667;28;20395;-51
2023/01/11 00:28:22;;;;;;;9.48;2.85;;;;;;;-10.16;43.77;101917.72;5074099;28;20088;-56
2023/01/11 00:30:48;;;;;;;6.65;2.78;;;;;;;-10.11;43.62;101926.56;5074565;28;20119;-55
2023/01/11 00:33:13;;;;;;;4.55;2.13;;;;;;;-10.14;43.82;101931.59;5073885;28;20119;-53
2023/01/11 00:35:39;;;;;;;6.65;2.40;;;;;;;-10.16;43.79;101934.16;5074672;28;20437;-52
2023/01/11 00:38:04;;;;;;;9.30;3.17;;;;;;;-10.10;44.08;101938.69;5074078;28;20044;-54
2023/01/11 00:40:30;;;;;;;4.80;1.83;;;;;;;-9.96;43.98;101937.50;5073032;28;20169;-52
2023/01/11 00:48:23;;;;;;;3.88;1.98;;;;;;;-10.04;43.46;101925.97;5073956;28;20044;-52
2023/01/11 00:50:56;;;;;;;7.70;2.85;;;;;;;-10.12;43.41;101928.25;5074032;28;20020;-53
2023/01/11 00:53:21;;;;;;;7.13;2.63;;;;;;;-10.08;43.85;101929.28;5074667;28;20035;-53
2023/01/11 00:55:47;;;;;;;7.63;2.25;;;;;;;-9.98;43.97;101918.41;5072749;28;20024;-56
2023/01/11 00:58:12;;;;;;;9.70;3.03;;;;;;;-10.03;44.04;101916.47;5073454;28;20080;-54
2023/01/11 01:00:37;;;;;;;4.95;2.85;;;;;;;-10.04;43.73;101912.13;5072613;28;20071;-53
2023/01/11 01:03:03;;;;;;;5.10;2.25;;;;;;;-10.01;43.57;101927.78;5072882;28;20040;-54
2023/01/11 01:05:28;;;;;;;5.70;2.22;;;;;;;-9.98;43.55;101914.97;5073694;28;20024;-52
2023/01/11 01:07:54;;;;;;;5.35;2.67;;;;;;;-9.93;43.36;101916.00;5073619;28;20055;-54
2023/01/11 01:10:20;;;;;;;7.32;2.20;;;;;;;-9.95;43.28;101907.28;5073748;28;20044;-53
2023/01/11 01:15:31;;;;;;;7.68;2.58;;;;;;;-9.94;43.59;101919.44;5073557;28;20025;-55
2023/01/11 01:17:57;;;;;;;5.45;2.45;;;;;;;-9.83;43.29;101920.69;5072737;28;20383;-54
2023/01/11 01:20:23;;;;;;;7.57;2.13;;;;;;;-9.81;43.43;101925.94;5073744;28;20028;-55
2023/01/11 01:22:49;;;;;;;5.40;2.60;;;;;;;-9.96;43.46;101911.56;5073551;28;20376;-59
2023/01/11 01:25:15;;;;;;;4.95;2.20;;;;;;;-9.91;43.54;101910.88;5072823;28;20891;-55
2023/01/11 01:27:41;;;;;;;7.15;2.70;;;;;;;-9.89;43.45;101909.22;5073171;28;20497;-52
2023/01/11 01:30:09;;;;;;;7.70;2.40;;;;;;;-9.87;43.57;101911.03;5073167;28;20334;-57
2023/01/11 01:32:34;;;;;;;4.97;2.42;;;;;;;-9.81;43.56;101908.66;5073443;28;20036;-55
2023/01/11 01:35:00;;;;;;;9.48;2.47;;;;;;;-9.78;43.31;101907.00;5073133;28;20059;-55
2023/01/11 01:37:25;;;;;;;6.30;2.50;;;;;;;-9.78;43.59;101896.66;5073123;28;20036;-54
2023/01/11 01:39:51;;;;;;;7.70;2.90;;;;;;;-9.75;43.33;101905.44;5072746;28;20372;-56
2023/01/11 01:42:19;;;;;;;5.50;2.22;;;;;;;-9.66;43.57;101907.47;5073404;28;20068;-52
2023/01/11 01:45:05;;;;;;;5.40;2.15;;;;;;;-9.87;42.87;101873.88;5071397;28;20036;-57
2023/01/11 01:47:52;;;;;;;5.28;2.63;;;;;;;-9.68;43.56;101890.97;5072669;28;20039;-52
2023/01/11 01:50:35;;;;;;;6.13;2.42;;;;;;;-9.67;43.04;101888.44;5072545;28;20036;-55
2023/01/11 01:53:13;;;;;;;4.95;2.30;;;;;;;-9.68;42.56;101902.22;5072613;28;20404;-54
2023/01/11 01:55:44;;;;;;;5.43;2.40;;;;;;;-9.80;43.22;101891.41;5072555;28;20858;-53
2023/01/11 01:58:12;;;;;;;5.90;2.40;;;;;;;-9.68;43.55;101906.53;5072136;28;20436;-53
2023/01/11 02:00:41;;;;;;;6.47;2.90;;;;;;;-9.76;42.94;101898.47;5055151;28;20349;-56
2023/01/11 02:03:11;;;;;;;6.63;2.42;;;;;;;-9.76;43.08;101893.28;5072433;28;20039;-55
2023/01/11 02:05:36;;;;;;;5.43;2.60;;;;;;;-9.76;42.99;101898.47;5072421;28;20024;-56
2023/01/11 02:08:06;;;;;;;5.90;2.88;;;;;;;-9.80;42.88;101889.69;5072247;28;20373;-52
2023/01/11 02:10:32;;;;;;;8.13;3.00;;;;;;;-9.72;43.06;101881.34;5071498;28;20040;-57
2023/01/11 02:13:04;;;;;;;5.50;2.38;;;;;;;-9.64;42.63;101881.59;5072342;28;20049;-55
2023/01/11 02:15:30;;;;;;;6.05;2.60;;;;;;;-9.71;42.65;101880.50;5072540;28;20074;-57
2023/01/11 02:17:57;;;;;;;6.28;2.67;;;;;;;-9.76;43.07;101877.75;5052517;28;20032;-54
2023/01/11 02:20:50;;;;;;;4.60;2.47;;;;;;;-9.74;42.88;101881.25;5057995;28;20023;-55
2023/01/11 02:23:37;;;;;;;7.68;2.90;;;;;;;-9.74;43.36;101891.63;5072144;28;20046;-55
2023/01/11 02:26:34;;;;;;;8.65;2.97;;;;;;;-9.70;43.31;101877.09;5071264;28;20040;-54
2023/01/11 02:29:12;;;;;;;5.63;2.65;;;;;;;-9.72;42.96;101884.78;5072410;28;20407;-53
2023/01/11 02:31:44;;;;;;;4.82;2.35;;;;;;;-9.60;42.84;101896.44;5072634;28;20144;-59
2023/01/11 02:34:18;;;;;;;6.10;2.90;;;;;;;-9.63;42.33;101880.78;5072051;28;20445;-52
2023/01/11 02:37:32;;;;;;;6.43;2.45;;;;;;;-9.79;43.31;101851.72;5071767;28;20129;-56
2023/01/11 02:40:06;;;;;;;5.45;2.63;;;;;;;-9.70;43.07;101870.19;5049444;28;20059;-52
2023/01/11 02:45:31;;;;;;;7.70;2.97;;;;;;;-9.65;42.39;101875.53;5071791;28;20028;-51
2023/01/11 02:48:02;;;;;;;7.60;2.65;;;;;;;-9.72;42.67;101873.56;5072909;28;20467;-56
2023/01/11 02:50:57;;;;;;;6.72;2.50;;;;;;;-9.70;43.24;101869.31;5072708;28;20036;-55
2023/01/11 02:53:43;;;;;;;5.47;2.10;;;;;;;-9.69;42.38;101866.75;5072120;28;20051;-53
2023/01/11 02:56:13;;;;;;;4.50;2.33;;;;;;;-9.82;42.41;101862.84;5071367;28;20037;-54
2023/01/11 02:58:42;;;;;;;6.28;2.30;;;;;;;-9.83;42.37;101880.94;5072096;28;20033;-51
2023/01/11 03:01:08;;;;;;;5.30;2.35;;;;;;;-9.83;42.73;101871.44;5072035;28;20115;-53
2023/01/11 03:03:34;;;;;;;7.30;2.78;;;;;;;-9.73;42.33;101870.06;5071329;28;20075;-53
2023/01/11 03:06:11;;;;;;;6.18;3.00;;;;;;;-9.76;42.74;101851.81;5072329;28;20350;-51
2023/01/11 03:09:10;;;;;;;7.10;2.83;;;;;;;-9.66;42.61;101877.22;5072588;28;20333;-56
2023/01/11 03:14:42;;;;;;;6.43;2.63;;;;;;;-9.73;42.53;101861.44;5071604;28;20383;-56
2023/01/11 03:17:44;;;;;;;5.57;3.10;;;;;;;-9.72;42.88;101853.69;5071179;28;20043;-52
2023/01/11 03:20:32;;;;;;;6.05;2.65;;;;;;;-9.74;43.11;101857.06;5070922;28;20044;-53
2023/01/11 03:23:14;;;;;;;6.63;3.00;;;;;;;-9.69;42.72;101842.56;5071851;28;20036;-56
2023/01/11 03:26:01;;;;;;;8.38;2.53;;;;;;;-9.70;42.60;101846.84;5071325;28;20105;-53
2023/01/11 03:28:45;;;;;;;5.72;2.30;;;;;;;-9.72;42.65;101838.13;5071666;28;20032;-54
2023/01/11 03:31:32;;;;;;;8.95;3.17;;;;;;;-9.77;42.99;101843.97;5071082;28;20051;-53
2023/01/11 03:34:26;;;;;;;6.50;2.90;;;;;;;-9.78;43.06;101837.03;5072457;28;20488;-52
2023/01/11 03:36:58;;;;;;;5.68;3.30;;;;;;;-9.85;42.55;101835.94;5075175;28;20044;-53
2023/01/11 03:40:02;;;;;;;5.50;2.60;;;;;;;-9.75;42.97;101840.63;5075288;28;20136;-52
2023/01/11 03:42:32;;;;;;;5.22;2.97;;;;;;;-9.83;42.59;101857.63;5066356;28;20459;-52
2023/01/11 03:45:00;;;;;;;6.38;2.65;;;;;;;-9.83;42.71;101835.16;5075306;28;20111;-53
2023/01/11 03:47:28;;;;;;;5.68;2.42;;;;;;;-9.99;42.85;101807.81;5074317;28;20133;-52
2023/01/11 03:50:07;;;;;;;6.18;3.28;;;;;;;-9.85;42.76;101848.91;5075267;28;20479;-55
2023/01/11 03:52:37;;;;;;;7.95;3.25;;;;;;;-10.13;43.09;101811.59;5075290;28;20460;-54
2023/01/11 03:55:07;;;;;;;7.43;3.45;;;;;;;-9.93;42.94;101847.72;5075278;28;20028;-55
2023/01/11 03:57:36;;;;;;;6.20;2.70;;;;;;;-9.93;42.89;101839.94;5075116;28;20037;-56
2023/01/11 04:00:03;;;;;;;8.23;3.38;;;;;;;-10.07;43.02;101832.56;5073908;28;20032;-54
2023/01/11 04:02:35;;;;;;;9.13;3.42;;;;;;;-9.96;42.92;101832.97;5074439;28;20029;-56
2023/01/11 04:05:01;;;;;;;7.05;2.78;;;;;;;-9.96;43.26;101820.88;5074019;28;20028;-54
2023/01/11 04:07:28;;;;;;;9.32;2.90;;;;;;;-9.88;43.33;101812.50;5074542;28;20036;-53
2023/01/11 04:09:54;;;;;;;7.63;3.00;;;;;;;-9.74;42.92;101815.59;5074772;28;20032;-53
2023/01/11 04:12:19;;;;;;;7.35;3.05;;;;;;;-9.68;41.92;101818.38;5074616;28;20029;-51
2023/01/11 04:14:45;;;;;;;7.55;2.92;;;;;;;-10.13;42.57;101776.22;5074471;28;20384;-56
2023/01/11 04:17:10;;;;;;;5.50;2.63;;;;;;;-9.94;43.12;101831.31;5074782;28;20078;-53
2023/01/11 04:19:36;;;;;;;8.82;3.22;;;;;;;-9.99;43.04;101818.19;5074689;28;20383;-57
2023/01/11 04:22:01;;;;;;;6.78;2.85;;;;;;;-10.01;42.92;101824.13;5074373;28;20360;-57
2023/01/11 04:24:27;;;;;;;5.20;3.05;;;;;;;-10.04;42.83;101830.09;5074402;28;20451;-52
2023/01/11 04:26:52;;;;;;;5.72;2.55;;;;;;;-9.88;42.64;101841.88;5056734;28;20488;-54
2023/01/11 04:29:17;;;;;;;6.38;3.13;;;;;;;-9.96;42.56;101823.47;5073952;28;20127;-54
2023/01/11 04:31:43;;;;;;;7.57;3.13;;;;;;;-10.04;43.02;101824.00;5073468;28;20104;-56
2023/01/11 04:34:11;;;;;;;7.88;3.20;;;;;;;-10.04;43.11;101829.19;5074604;28;20105;-51
2023/01/11 04:36:36;;;;;;;7.70;2.72;;;;;;;-9.85;42.70;101835.94;5073683;28;20025;-58
2023/01/11 04:39:02;;;;;;;8.27;3.28;;;;;;;-9.94;42.66;101818.34;5074346;28;20376;-54
2023/01/11 04:44:11;;;;;;;6.75;2.55;;;;;;;-9.96;42.36;101805.31;5074406;28;20021;-53
2023/01/11 04:46:37;;;;;;;7.72;3.22;;;;;;;-10.11;42.99;101810.84;5073867;28;20036;-59
2023/01/11 04:49:02;;;;;;;4.05;2.08;;;;;;;-9.95;43.11;101821.78;5073918;28;20052;-56
2023/01/11 04:51:28;;;;;;;5.47;2.63;;;;;;;-9.95;42.93;101821.78;5073823;28;20020;-56
2023/01/11 04:53:53;;;;;;;5.78;2.72;;;;;;;-10.21;42.78;101779.38;5073483;28;20044;-51
2023/01/11 04:56:19;;;;;;;5.78;2.30;;;;;;;-9.99;42.82;101817.31;5073782;28;20107;-51
2023/01/11 04:58:45;;;;;;;8.60;3.50;;;;;;;-10.13;42.91;101804.72;5073496;28;20046;-55
2023/01/11 05:01:17;;;;;;;5.75;2.70;;;;;;;-10.11;43.27;101822.94;5073384;28;20025;-53
2023/01/11 05:03:44;;;;;;;8.30;3.45;;;;;;;-10.10;43.12;101819.50;5074087;28;20036;-53
2023/01/11 05:06:10;;;;;;;7.60;3.20;;;;;;;-10.20;42.99;101801.84;5073895;28;20322;-55
2023/01/11 05:08:35;;;;;;;7.53;3.25;;;;;;;-10.33;43.86;101795.34;5072827;28;20035;-52
2023/01/11 05:11:04;;;;;;;5.93;2.40;;;;;;;-10.20;43.89;101812.22;5073440;28;20028;-52
2023/01/11 05:13:42;;;;;;;4.72;2.47;;;;;;;-10.24;43.72;101806.06;5074104;28;20024;-52
2023/01/11 05:16:12;;;;;;;8.88;2.92;;;;;;;-10.17;43.70;101786.41;5073680;28;20027;-59
2023/01/11 05:18:43;;;;;;;7.65;2.97;;;;;;;-10.25;44.14;101786.13;5073366;28;20059;-57
2023/01/11 05:21:10;;;;;;;6.32;2.92;;;;;;;-10.13;43.26;101788.28;5073753;28;20157;-58
2023/01/11 05:23:36;;;;;;;10.05;3.40;;;;;;;-10.15;43.86;101789.94;5073833;28;20044;-52
2023/01/11 05:26:10;;;;;;;7.82;3.70;;;;;;;-10.24;44.34;101778.44;5072766;28;20036;-54
2023/01/11 05:28:35;;;;;;;6.60;3.22;;;;;;;-10.09;43.90;101791.03;5073131;28;20024;-55
2023/01/11 05:31:01;;;;;;;7.15;2.95;;;;;;;-10.05;43.95;101796.34;5073162;28;20052;-50
2023/01/11 05:33:27;;;;;;;6.88;3.10;;;;;;;-10.03;44.29;101774.84;5073512;28;20063;-58
2023/01/11 05:36:07;;;;;;;8.55;3.20;;;;;;;-9.92;44.17;101792.47;5071806;28;20115;-56
2023/01/11 05:38:33;;;;;;;5.80;3.05;;;;;;;-9.80;43.94;101792.91;5072801;28;20415;-55
2023/01/11 05:41:01;;;;;;;10.30;3.70;;;;;;;-9.88;43.76;101794.38;5072896;28;20317;-55
2023/01/11 05:43:28;;;;;;;9.90;3.17;;;;;;;-9.84;44.25;101791.06;5072663;28;20056;-56
2023/01/11 05:45:54;;;;;;;9.27;3.70;;;;;;;-9.91;44.17;101792.53;5072877;28;20468;-54
2023/01/11 05:48:20;;;;;;;8.85;3.20;;;;;;;-9.74;44.25;101787.94;5072298;28;20483;-51
2023/01/11 05:50:53;;;;;;;11.18;3.20;;;;;;;-10.00;44.25;101761.13;5072506;28;20060;-55
2023/01/11 05:53:19;;;;;;;6.03;2.95;;;;;;;-9.92;44.44;101782.09;5072264;28;20520;-55
2023/01/11 05:55:57;;;;;;;7.47;3.58;;;;;;;-10.07;45.01;101756.53;5070324;28;20453;-51
2023/01/11 05:58:25;;;;;;;10.73;3.75;;;;;;;-9.92;44.97;101772.63;5072410;28;20029;-60
2023/01/11 06:00:53;;;;;;;6.95;2.92;;;;;;;-9.81;43.95;101760.06;5072299;28;20043;-57
2023/01/11 06:03:18;;;;;;;6.82;3.60;;;;;;;-9.80;44.02;101785.13;5071671;28;20060;-56
2023/01/11 06:05:44;;;;;;;9.50;3.58;;;;;;;-10.07;44.82;101754.84;5072109;28;20072;-58
2023/01/11 06:08:10;;;;;;;7.45;3.35;;;;;;;-9.83;44.61;101787.63;5071475;28;20036;-56
2023/01/11 06:10:36;;;;;;;6.88;2.90;;;;;;;-9.83;45.03;101782.44;5072441;28;20082;-59
2023/01/11 06:15:45;;;;;;;5.78;3.33;;;;;;;-9.64;44.76;101778.78;5071958;28;20028;-59
2023/01/11 06:18:10;;;;;;;4.63;2.28;;;;;;;-9.46;44.43;101775.91;5071613;28;20461;-59
2023/01/11 06:20:36;;;;;;;5.85;2.95;;;;;;;-9.44;44.86;101797.56;5072408;28;20032;-66
2023/01/11 06:23:02;;;;;;;6.60;3.25;;;;;;;-9.47;44.12;101761.16;5071273;28;20055;-59
2023/01/11 06:25:29;;;;;;;8.40;3.63;;;;;;;-9.34;44.54;101783.22;5070757;28;20116;-53
2023/01/11 06:27:55;;;;;;;8.88;3.83;;;;;;;-9.30;44.54;101791.97;5071582;28;20032;-55
2023/01/11 06:30:24;;;;;;;9.45;3.28;;;;;;;-9.24;44.69;101776.59;5072505;28;20543;-54
2023/01/11 06:32:50;;;;;;;9.73;3.70;;;;;;;-9.15;44.34;101799.38;5071704;28;20028;-56
2023/01/11 06:35:16;;;;;;;8.25;3.70;;;;;;;-9.17;44.37;101778.56;5070656;28;20048;-58
2023/01/11 06:37:41;;;;;;;6.30;2.90;;;;;;;-9.10;44.24;101777.94;5069849;28;20369;-63
2023/01/11 06:40:07;;;;;;;7.38;3.13;;;;;;;-9.06;44.41;101772.84;5072903;28;20089;-56
2023/01/11 06:42:33;;;;;;;7.15;3.13;;;;;;;-9.06;44.41;101780.63;5072222;28;20028;-57
2023/01/11 06:44:58;;;;;;;5.63;2.85;;;;;;;-8.90;44.02;101763.81;5072031;28;20054;-56
2023/01/11 06:47:24;;;;;;;7.63;3.67;;;;;;;-9.13;44.56;101738.94;5072158;28;20024;-57
2023/01/11 06:49:49;;;;;;;6.68;3.20;;;;;;;-8.95;44.38;101758.47;5072416;28;20039;-59
2023/01/11 06:52:15;;;;;;;5.97;3.10;;;;;;;-8.96;44.65;101774.88;5071965;28;20057;-55
2023/01/11 06:54:40;;;;;;;10.68;3.65;;;;;;;-8.89;44.09;101766.47;5071190;28;20047;-57
2023/01/11 06:57:05;;;;;;;6.55;3.13;;;;;;;-8.77;44.30;101753.00;5072219;28;20388;-57
2023/01/11 06:59:31;;;;;;;9.88;3.80;;;;;;;-8.71;44.38;101750.56;5072440;28;20028;-56
2023/01/11 07:01:57;;;;;;;8.52;3.65;;;;;;;-8.67;44.31;101762.81;5072025;28;20025;-56
2023/01/11 07:04:23;;;;;;;7.63;3.03;;;;;;;-8.56;44.39;101746.63;5071919;28;20017;-58
2023/01/11 07:06:53;;;;;;;6.25;3.22;;;;;;;-8.44;44.41;101752.16;5071896;28;20403;-55
2023/01/11 07:09:18;;;;;;;6.93;3.42;;;;;;;-8.38;44.15;101785.25;5075351;28;20067;-56
2023/01/11 07:11:44;;;;;;;8.18;3.33;;;;;;;-8.33;43.97;101767.16;5076394;28;20063;-59
2023/01/11 07:14:10;;;;;;;9.60;3.67;;;;;;;-8.27;43.59;101772.56;5075860;28;20028;-57
2023/01/11 07:16:36;;;;;;;7.13;3.60;;;;;;;-8.32;44.06;101748.16;5075991;28;20024;-58
2023/01/11 07:19:01;;;;;;;8.27;3.50;;;;;;;-8.23;43.35;101767.47;5075951;28;20024;-57
2023/01/11 07:21:27;;;;;;;8.90;3.45;;;;;;;-8.29;44.16;101753.47;5075701;28;20036;-59
2023/01/11 07:23:52;;;;;;;8.63;3.75;;;;;;;-8.23;43.73;101767.47;5074334;28;20024;-57
2023/01/11 07:26:18;;;;;;;10.13;3.42;;;;;;;-8.26;43.75;101731.00;5075911;28;20120;-57
2023/01/11 07:28:43;;;;;;;7.93;3.55;;;;;;;-8.28;43.99;101740.50;5075334;28;20045;-63
2023/01/11 07:31:08;;;;;;;9.00;3.30;;;;;;;-8.15;43.32;101743.44;5075240;28;20025;-60
2023/01/11 07:33:34;;;;;;;6.00;2.92;;;;;;;-8.30;43.68;101736.97;5075321;28;20053;-57
2023/01/11 07:35:59;;;;;;;8.02;3.42;;;;;;;-8.11;44.28;101750.47;5075246;28;20502;-57
2023/01/11 07:38:28;;;;;;;7.20;3.50;;;;;;;-8.07;44.07;101757.53;5073753;28;20101;-58
2023/01/11 07:40:53;;;;;;;7.95;3.35;;;;;;;-7.95;43.42;101755.25;5075241;28;20032;-59
2023/01/11 07:43:22;;;;;;;10.23;3.70;;;;;;;-7.95;43.63;101755.25;5075105;28;20134;-57
2023/01/11 07:45:49;;;;;;;8.18;3.63;;;;;;;-7.93;44.29;101756.19;5074901;28;20441;-55
2023/01/11 07:48:23;;;;;;;7.43;2.85;;;;;;;-7.83;43.63;101753.81;5075031;28;20036;-58
2023/01/11 07:50:49;;;;;;;7.82;2.28;;;;;;;-7.67;43.10;101755.09;5074594;28;20384;-57
2023/01/11 07:53:15;;;;;;;8.88;3.47;;;;;;;-7.87;43.78;101758.03;5074211;28;20463;-59
2023/01/11 07:55:41;;;;;;;6.85;2.80;;;;;;;-7.89;43.98;101758.84;5075124;28;20091;-58
2023/01/11 07:58:15;;;;;;;7.20;3.78;;;;;;;-7.88;43.91;101755.41;5074836;28;20039;-59
2023/01/11 08:00:41;;;;;;;10.52;3.40;;;;;;;-7.81;43.84;101745.22;5075634;28;20024;-58
2023/01/11 08:03:07;;;;;;;11.85;3.67;;;;;;;-7.80;43.94;101733.09;5074314;28;20051;-56
2023/01/11 08:05:32;;;;;;;6.47;3.75;;;;;;;-7.77;44.08;101738.38;5074443;28;20040;-58
2023/01/11 08:07:58;;;;;;;8.77;3.55;;;;;;;-7.72;44.28;101744.56;5075057;28;20032;-55
2023/01/11 08:10:23;;;;;;;6.57;3.15;;;;;;;-7.69;43.37;101734.25;5074999;28;20482;-56
2023/01/11 08:15:41;;;;;;;8.48;3.45;;;;;;;-7.63;43.64;101730.91;5074833;28;20028;-59
2023/01/11 08:18:06;;;;;;;13.98;3.97;;;;;;;-7.94;43.92;101704.13;5073930;28;20491;-59
2023/01/11 08:20:32;;;;;;;6.28;3.20;;;;;;;-7.73;44.56;101742.81;5073649;28;20071;-57
2023/01/11 08:23:02;;;;;;;7.68;3.38;;;;;;;-7.65;44.38;101748.19;5074265;28;20416;-59
2023/01/11 08:25:27;;;;;;;10.73;3.47;;;;;;;-7.76;44.41;101714.13;5074788;28;20452;-56
2023/01/11 08:27:53;;;;;;;8.73;4.03;;;;;;;-7.49;44.40;101728.66;5074825;28;20043;-56
2023/01/11 08:30:18;;;;;;;16.15;4.13;;;;;;;-7.43;44.15;101728.81;5073364;28;20032;-55
2023/01/11 08:32:44;;;;;;;7.63;3.63;;;;;;;-7.36;43.71;101729.81;5074192;28;20047;-64
2023/01/11 08:35:09;;;;;;;7.88;3.65;;;;;;;-7.25;43.78;101717.06;5073897;28;20127;-55
2023/01/11 08:37:35;;;;;;;8.93;3.45;;;;;;;-7.13;43.46;101737.31;5074323;28;20036;-57
2023/01/11 08:40:00;;;;;;;10.10;3.38;;;;;;;-7.09;43.30;101713.13;5073922;28;20036;-58
2023/01/11 08:42:26;;;;;;;9.35;3.67;;;;;;;-7.00;43.07;101715.91;5073246;28;20147;-57
2023/01/11 08:44:51;;;;;;;9.50;3.40;;;;;;;-7.13;43.31;101706.94;5074584;28;20064;-56
2023/01/11 08:47:17;;;;;;;7.40;3.28;;;;;;;-7.10;43.70;101720.03;5074286;28;20075;-58
2023/01/11 08:49:42;;;;;;;8.35;3.33;;;;;;;-7.07;43.51;101691.47;5074097;28;20025;-58
2023/01/11 08:52:12;;;;;;;7.35;2.85;;;;;;;-6.82;43.06;101706.75;5073911;28;20040;-57
2023/01/11 08:54:39;;;;;;;7.80;3.10;;;;;;;-6.75;42.75;101686.91;5074330;28;20032;-55
2023/01/11 08:57:04;;;;;;;5.10;1.45;;;;;;;-6.59;42.32;101686.38;5072694;28;20572;-54
2023/01/11 08:59:30;;;;;;;7.15;3.45;;;;;;;-6.95;42.82;101666.56;5073904;28;20032;-52
2023/01/11 09:01:55;;;;;;;9.75;3.95;;;;;;;-6.83;42.86;101700.66;5071339;28;20035;-54
2023/01/11 09:04:21;;;;;;;8.70;3.88;;;;;;;-6.85;42.46;101697.16;5073179;28;20024;-58
2023/01/11 09:06:46;;;;;;;8.60;3.78;;;;;;;-7.08;42.71;101663.66;5074011;28;20020;-59
2023/01/11 09:09:11;;;;;;;7.70;3.78;;;;;;;-6.83;42.81;101705.88;5073824;28;20028;-56
2023/01/11 09:11:56;;;;;;;6.38;3.00;;;;;;;-6.80;42.60;101690.28;5073164;28;20460;-56
2023/01/11 09:14:24;;;;;;;9.57;3.72;;;;;;;-6.91;42.68;101697.03;5073850;28;20036;-56
2023/01/11 09:16:50;;;;;;;9.52;3.33;;;;;;;-6.92;42.61;101695.25;5073471;28;20032;-59
2023/01/11 09:19:16;;;;;;;7.15;3.60;;;;;;;-6.98;43.02;101701.22;5073261;28;20082;-58
2023/01/11 09:21:43;;;;;;;8.23;3.55;;;;;;;-6.98;42.72;101689.94;5073436;28;20452;-57
2023/01/11 09:24:08;;;;;;;7.65;3.60;;;;;;;-6.97;42.88;101689.06;5073515;28;20040;-54
2023/01/11 09:26:34;;;;;;;8.43;3.63;;;;;;;-7.14;42.87;101647.91;5072673;28;20036;-57
2023/01/11 09:29:00;;;;;;;7.75;3.05;;;;;;;-6.86;42.97;101698.00;5072722;28;20294;-57
2023/01/11 09:31:25;;;;;;;8.50;2.92;;;;;;;-6.97;43.17;101674.31;5072851;28;20024;-56
2023/01/11 09:33:51;;;;;;;6.63;3.08;;;;;;;-6.89;43.04;101661.47;5072544;28;20540;-55
2023/01/11 09:36:20;;;;;;;5.13;2.85;;;;;;;-6.86;43.09;101643.28;5072680;28;20028;-59
2023/01/11 09:38:51;;;;;;;5.22;2.45;;;;;;;-6.90;43.01;101682.25;5072856;28;20028;-62
2023/01/11 09:41:26;;;;;;;8.10;3.45;;;;;;;-6.96;43.54;101665.66;5072902;28;20032;-58
2023/01/11 09:43:56;;;;;;;5.53;2.65;;;;;;;-6.97;43.72;101653.47;5072049;28;20036;-59
2023/01/11 09:46:23;;;;;;;6.93;3.22;;;;;;;-7.04;44.38;101659.41;5072491;28;20040;-58
2023/01/11 09:48:59;;;;;;;9.63;3.08;;;;;;;-7.08;44.21;101622.00;5067493;28;20048;-56
2023/01/11 09:51:32;;;;;;;8.15;3.20;;;;;;;-7.00;44.64;101639.50;5068832;28;20045;-58
2023/01/11 09:54:00;;;;;;;6.13;2.85;;;;;;;-7.04;44.99;101637.69;5072470;28;20032;-62
2023/01/11 09:56:35;;;;;;;8.27;3.08;;;;;;;-7.01;45.10;101642.97;5071834;28;20073;-58
2023/01/11 09:59:23;;;;;;;;;;;;;;;-6.77;44.60;101634.78;5067862;28;20024;-58
2023/01/11 10:02:10;;;;;;;6.10;2.60;;;;;;;-6.90;44.77;101636.28;5070039;28;19981;-65
2023/01/11 10:04:48;;;;;;;7.47;2.85;;;;;;;-6.91;44.60;101626.69;5071006;28;20119;-56
2023/01/11 10:07:21;;;;;;;4.20;2.40;;;;;;;-6.91;44.86;101621.50;5072487;28;20087;-59
2023/01/11 10:10:12;;;;;;;6.93;3.05;;;;;;;-6.82;44.60;101615.59;5059146;28;20032;-60
2023/01/11 10:13:05;;;;;;;6.13;3.15;;;;;;;-6.75;44.11;101627.00;5072133;28;20121;-57
2023/01/11 10:15:56;;;;;;;8.55;3.25;;;;;;;-6.86;44.08;101596.41;5071623;28;20032;-58
2023/01/11 10:19:13;;;;;;;5.10;2.70;;;;;;;-6.56;44.07;101603.06;5067695;28;20032;-58
2023/01/11 10:21:54;;;;;;;5.88;2.95;;;;;;;-6.51;43.57;101630.09;5049494;28;20381;-60
2023/01/11 10:24:26;;;;;;;8.95;3.50;;;;;;;-6.59;43.89;101602.13;5051601;28;20041;-59
2023/01/11 10:26:57;;;;;;;7.10;2.85;;;;;;;-6.44;43.26;101606.75;5069639;28;20475;-62
2023/01/11 10:29:46;;;;;;;6.78;3.33;;;;;;;-6.45;43.62;101597.19;5062660;28;20043;-57
2023/01/11 10:32:33;;;;;;;5.35;2.90;;;;;;;-6.44;43.44;101593.72;5070987;28;20070;-62
2023/01/11 10:38:32;;;;;;;6.40;2.90;;;;;;;-6.33;43.55;101586.09;5071678;28;20041;-59
2023/01/11 10:41:14;;;;;;;8.18;3.00;;;;;;;-6.33;43.75;101597.38;5071767;28;20036;-60
2023/01/11 10:43:46;;;;;;;10.25;3.35;;;;;;;-6.28;43.43;101585.31;5074838;28;20371;-62
2023/01/11 10:46:16;;;;;;;13.27;3.03;;;;;;;-6.33;43.39;101591.31;5077969;28;20036;-69
2023/01/11 10:48:44;;;;;;;7.00;3.47;;;;;;;-6.38;43.93;101575.59;5067994;28;20052;-59
2023/01/11 10:51:36;;;;;;;9.85;3.05;;;;;;;-6.20;43.33;101582.84;5072828;28;20051;-59
2023/01/11 10:54:15;;;;;;;8.23;2.90;;;;;;;-6.27;43.42;101570.56;5077422;28;20040;-60
2023/01/11 10:56:54;;;;;;;7.65;2.90;;;;;;;-6.27;43.13;101561.03;5076656;28;20441;-57
2023/01/11 10:59:53;;;;;;;6.78;3.30;;;;;;;-6.39;43.76;101561.69;5076692;28;20031;-64
2023/01/11 11:02:27;;;;;;;7.85;2.97;;;;;;;-6.54;43.67;101536.22;5075858;28;20044;-63
2023/01/11 11:04:59;;;;;;;7.72;2.92;;;;;;;-6.42;43.29;101566.81;5077757;28;20522;-59
2023/01/11 11:07:33;;;;;;;4.95;2.80;;;;;;;-6.61;43.96;101570.84;5078233;28;20098;-56
2023/01/11 11:10:43;;;;;;;5.85;2.90;;;;;;;-6.47;44.51;101559.78;5078528;28;20111;-58
2023/01/11 11:13:21;;;;;;;6.85;3.05;;;;;;;-6.62;43.46;101543.03;5052864;28;20036;-57
2023/01/11 11:15:54;;;;;;;7.57;3.17;;;;;;;-6.51;43.88;101564.97;5076207;28;20173;-57
2023/01/11 11:18:20;;;;;;;9.05;3.40;;;;;;;-6.54;43.56;101567.47;5078085;28;20036;-64
2023/01/11 11:20:45;;;;;;;5.60;3.10;;;;;;;-6.55;43.78;101554.44;5077124;28;20036;-56
2023/01/11 11:23:18;;;;;;;9.13;3.50;;;;;;;-6.47;43.58;101562.41;5077581;28;20025;-59
2023/01/11 11:25:56;;;;;;;9.65;3.88;;;;;;;-6.70;43.97;101535.06;5077665;28;20032;-56
2023/01/11 11:28:21;;;;;;;6.82;3.40;;;;;;;-6.74;44.30;101533.25;5077605;28;20036;-57
2023/01/11 11:30:49;;;;;;;9.90;3.80;;;;;;;-6.73;44.32;101516.78;5076852;28;20055;-60
2023/01/11 11:33:18;;;;;;;5.50;2.80;;;;;;;-6.75;44.48;101521.09;5076099;28;20102;-57
2023/01/11 11:35:53;;;;;;;8.73;3.10;;;;;;;-6.72;44.46;101539.38;5077677;28;20459;-59
2023/01/11 11:38:21;;;;;;;;;;;;;;;-6.58;44.10;101512.69;5077823;28;20059;-58
2023/01/11 11:41:17;;;;;;;7.95;3.33;;;;;;;-6.82;44.04;101508.81;5077183;28;20357;-57
2023/01/11 11:43:45;;;;;;;6.95;3.47;;;;;;;-6.90;44.48;101511.25;5077384;28;20033;-57
2023/01/11 11:46:18;;;;;;;7.65;3.28;;;;;;;-6.81;44.80;101527.06;5077793;28;20048;-54
2023/01/11 11:49:04;;;;;;;6.32;2.70;;;;;;;-6.85;44.61;101525.25;5076878;28;20083;-62
2023/01/11 11:51:30;;;;;;;6.40;3.08;;;;;;;-6.85;44.75;101520.03;5076993;28;20064;-59
2023/01/11 11:53:56;;;;;;;5.65;2.40;;;;;;;-7.03;44.81;101473.72;5075672;28;20029;-57
2023/01/11 11:56:40;;;;;;;8.35;2.90;;;;;;;-6.97;44.87;101492.03;5072134;28;20131;-60
2023/01/11 11:59:08;;;;;;;6.03;2.88;;;;;;;-6.79;45.03;101501.03;5074373;28;20033;-59
2023/01/11 12:01:45;;;;;;;5.05;3.00;;;;;;;-6.74;44.87;101516.78;5073867;28;20029;-64
2023/01/11 12:04:14;;;;;;;4.85;3.03;;;;;;;-6.89;45.01;101488.69;5066197;28;20086;-63
2023/01/11 12:06:41;;;;;;;7.72;2.97;;;;;;;-6.81;45.19;101503.59;5050653;28;20033;-59